Record high temperature 35.2°C Record low temperature -28.5°C Record high gust 73.6 km/h Record high average 52.2 km/h Record daily rain 78.0 mm Record low windchill -39.6°C Record high barometer 1045.2 hPa Record low barometer 973.0 hPa
Daily high pressure 1016 hPa Daily low pressure 1009 hPa Daily low windchill 2.1°C Daily high heat index 9.8°C Daily high gust speed 17.6 kmh WSW Daily high average speed 12.9 kmh NW
Beaconsfield Home Weather Data WMR-968
LAST READING AT TIME: 19:30 DATE: October 30 2014, time of next update: 19:35
Current WeatherNight time/Dry/Overcast Current Temperature 6.3°C (43.3°F), Apparent temp 4.6°C
Maximum Temperature (since midnight)9.8°C at: 00:00 Minimum Temperature (since midnight)4.9°C at: 07:55
Average windspeed (ten minute)0.0 kmh (0.0 kts) Wind Direction (ten minute)WSW (241°)
Windchill Temperature 6.3°C Maximum Gust (last hour)14.0 kmh (7.6 kts) at: 18:43
Maximum Gust (since midnight)17.6 kmh (9.5 kts) at: 14:39 Maximum 1 minute average (since midnight)12.9 kmh (7.0 kts) at: 15:02
Rainfall (last hour)0.0 mm Rainfall (since midnight)0.0 mm (0.00 in.)---
Rainfall This month 81.6 mm (3.21 in.) Rainfall To date this year 703.0 mm (27.68 in.)
Maximum rain per minute (last hour)0.0 mm/min Maximum rain per hour (last 6 hours)0.0 mm/hour
Yesterdays rainfall 1.2 mm DewPoint -7.0°C (Wet Bulb :2.0°C )
Humidity 38 %, Humidex 2.8°C Barometer corrected to msl1016 hPa
Pressure change 0 hPa (last hour) Trend (last hour)STEADY
Pressure change (last 12 hours)+5 hPa Pressure change (last 6 hours)+1 hPa
Current Indoor Temp. 21.5°C
Current Indoor Hum. 40%
Current 00:00 hours of sunshine today, current sky: Night time/Dry/Overcast
Sunshine hours for the year: 46:04 hrs Sunshine hours for the month: 00:00 hrs
Current evapotranspiration rate 1.2 mm per day. Yesterday's reading 1.1




Weather report/warning/Metars

Montreal / Pierre Elliot Trudeau International Airport, Que, Canada (CYUL) 45-28N 073-45W 36M
Oct 30, 2014 - 07:00 PM EDT / 2014.10.30 2300 UTC
Wind: from the W (270 degrees) at 12 MPH (10 KT):0
Visibility: 15 mile(s):0
Sky conditions: overcast
Temperature: 44 F (7 C)
Dew Point: 30 F (-1 C)
Relative Humidity: 56%
Pressure (altimeter): 30.01 in. Hg (1016 hPa)
ob: CYUL 302300Z 27010KT 15SM FEW030 OVC044 07/M01 A3001 RMK SC1SC8 SC TR SLP164
cycle: 23
Sherbrooke, Que., Canada (CYSC) 45-24N 071-53W
Oct 30, 2014 - 07:00 PM EDT / 2014.10.30 2300 UTC
Wind: from the SSW (210 degrees) at 5 MPH (4 KT):0
Visibility: 9 mile(s):0
Sky conditions: overcast
Temperature: 41 F (5 C)
Dew Point: 33 F (1 C)
Relative Humidity: 75%
Pressure (altimeter): 29.97 in. Hg (1014 hPa)
ob: CYSC 302300Z AUTO 21004KT 9SM OVC047 05/01 A2997 RMK SLP157
cycle: 23
St Jovite Automatic Weather Reporting System , Canada (CWJT) 46-04N 074-32W
Oct 30, 2014 - 03:00 PM EDT / 2014.10.30 1900 UTC
Wind: from the W (260 degrees) at 5 MPH (4 KT):0
Temperature: 40.8 F (4.9 C)
Dew Point: 28.6 F (-1.9 C)
Relative Humidity: 61%
Pressure tendency: 0.01 inches (0.4 hPa) lower than three hours ago
ob: CWJT 301900Z AUTO 26004KT 05/M02 RMK AO1 SLP151 T00491019 56004
cycle: 19
Ste Anne De Bell 1, Canada (CWVQ) 45-26N 073-56W
Oct 30, 2014 - 07:00 PM EDT / 2014.10.30 2300 UTC
Wind: from the W (270 degrees) at 9 MPH (8 KT):0
Temperature: 42.8 F (6.0 C)
Dew Point: 30.7 F (-0.7 C)
Relative Humidity: 62%
Pressure tendency: 0.04 inches (1.2 hPa) higher than three hours ago
ob: CWVQ 302300Z AUTO 27008KT 06/M01 RMK AO1 SLP164 T00601007 53012
cycle: 23
Montreal / Mirabel, Canada (CYMX) 45-41N 074-02W
Oct 30, 2014 - 07:00 PM EDT / 2014.10.30 2300 UTC
Wind: from the NW (320 degrees) at 5 MPH (4 KT):0
Visibility: 25 mile(s):0
Sky conditions: overcast
Temperature: 41 F (5 C)
Dew Point: 26 F (-3 C)
Relative Humidity: 56%
Pressure (altimeter): 30.02 in. Hg (1016 hPa)
ob: CYMX 302300Z 32004KT 25SM OVC047 05/M03 A3002 RMK SC8 SLP167
cycle: 23
L'Acadie, Canada (CWIZ) 45-18N 073-21W
Oct 30, 2014 - 07:00 PM EDT / 2014.10.30 2300 UTC
Wind: from the W (270 degrees) at 6 MPH (5 KT):0
Temperature: 41.9 F (5.5 C)
Dew Point: 34.3 F (1.3 C)
Relative Humidity: 74%
ob: CWIZ 302300Z AUTO 27005KT 06/01 RMK AO1 T00550013
cycle: 23
St Anicet, Canada (CWBZ) 45-07N 074-17W 49M
Oct 30, 2014 - 07:00 PM EDT / 2014.10.30 2300 UTC
Wind: from the W (260 degrees) at 6 MPH (5 KT):0
Temperature: 43.2 F (6.2 C)
Dew Point: 31.6 F (-0.2 C)
Relative Humidity: 63%
Pressure tendency: 0.04 inches (1.2 hPa) higher than three hours ago
ob: CWBZ 302300Z AUTO 26005KT 06/M00 RMK AO1 SLP167 T00621002 51012
cycle: 23
Mount Washington, NH, United States (KMWN) 44-16N 071-18W 1910M
Oct 30, 2014 - 06:51 PM EDT / 2014.10.30 2251 UTC
Wind: from the NW (310 degrees) at 36 MPH (31 KT):0
Visibility: 1/16 mile(s):0
Sky conditions: obscured
Weather: freezing fog
Temperature: 21 F (-6 C)
Windchill: 1 F (-17 C):1
Dew Point: 21 F (-6 C)
Relative Humidity: 100%
ob: KMWN 302251Z 31031KT 1/16SM FZFG VV001 M06/M06 RMK VRY LGT ICG
cycle: 23
Vancouver International Air-Port, B. C., Canada (CYVR) 49-11N 123-10W 2M
Oct 30, 2014 - 07:00 PM EDT / 2014.10.30 2300 UTC
Wind: from the E (100 degrees) at 13 MPH (11 KT):0
Visibility: 12 mile(s):0
Sky conditions: overcast
Weather: light rain
Temperature: 55 F (13 C)
Dew Point: 53 F (12 C)
Relative Humidity: 93%
Pressure (altimeter): 29.71 in. Hg (1006 hPa)
ob: CYVR 302300Z 10011KT 12SM -RA FEW032 BKN037 BKN045 OVC073 13/12 A2971 RMK SF2SC4SC1AC1 VIS N 8SM SLP062
cycle: 23



The data is logged at two minute intervals, but there is data recorded every minute.

Use the RELOAD facility on your browser to retrieve the latest data.

Click here for a daily update of the averages/extremes to date for the month

Click here for Real Time Weather



Created by "Weather Display" software version 10.37R Build 51 at this start time/date 18:37 2014-10-01